Four Nabucco — ZGAP9 — position and weather

sailwx.info

Track history (hours):
 
Tides and Currents Weather Stations Pressure Air Temp Water Temp Dewpoint Dewpoint Depression Visibility Wind Speed Wind Dir Waves Ship Positions

Four Nabucco

Last reported at 2015-Apr-21 18:07 UTC. Time now 2015-Apr-21 19:07 UTC.
Position N 31°01' E 122°36'.

Length 180 m; draft 8 m.

Type: Cargo ship. MMSI: 319030700.

Date/timePositionNaut miles runAvg speedWind from/ knotsBaromVisibWave heightAir tempDewpointWater temp
2015-Apr-21 18:07N 31°01' E 122°36'0 0.0
2015-Apr-21 16:31N 31°01' E 122°36'0 0.0
2015-Apr-21 15:07N 31°01' E 122°36'0 0.1
2015-Apr-21 14:04N 31°01' E 122°36'0 0.1
2015-Apr-21 12:13N 31°00' E 122°36'0 0.1
2015-Apr-21 11:13N 31°00' E 122°36'0 0.1
2015-Apr-21 10:22N 31°00' E 122°36'30 1.6
2015-Apr-20 15:33N 31°05' E 122°02'9 9.0
2015-Apr-20 14:34N 31°09' E 121°53'1313.1
2015-Apr-20 13:33N 31°19' E 121°42'1110.8
2015-Apr-20 12:33N 31°25' E 121°32'1110.6
2015-Apr-20 11:33N 31°32' E 121°22'2814.0
2015-Apr-20 09:33N 31°48' E 120°55'3010.0
2015-Apr-20 06:32N 32°01' E 120°24'1212.5
2015-Apr-20 05:32N 31°56' E 120°10'  
2015-Apr-15 23:15N 32°04' E 119°56'810.7
2015-Apr-15 22:30N 31°58' E 120°03'9 9.4
2015-Apr-15 21:32N 31°56' E 120°13'1211.4
2015-Apr-15 20:30N 32°02' E 120°25'10 8.1
2015-Apr-15 19:16N 32°01' E 120°36'710.3
2015-Apr-15 18:32N 32°01' E 120°45'2611.7
2015-Apr-15 16:18N 31°43' E 121°08'1013.8
2015-Apr-15 15:33N 31°36' E 121°17'1212.4
2015-Apr-15 14:33N 31°28' E 121°28'9 8.5
2015-Apr-15 13:33N 31°23' E 121°36'8 8.2
2015-Apr-15 12:33N 31°18' E 121°43'1211.9
2015-Apr-15 11:33N 31°09' E 121°53'1212.2
2015-Apr-15 10:34N 31°04' E 122°06'1111.0
2015-Apr-15 09:32N 31°02' E 122°19'10 9.7
2015-Apr-15 08:32N 31°00' E 122°30'5 0.5
2015-Apr-14 22:11N 31°01' E 122°35'0 0.1
2015-Apr-14 20:33N 31°01' E 122°35'25 0.8
2015-Apr-13 13:13N 31°04' E 122°06'710.5
2015-Apr-13 12:33N 31°06' E 121°58'1313.0
2015-Apr-13 11:33N 31°15' E 121°47'1010.3
2015-Apr-13 10:33N 31°22' E 121°38'9 8.6
2015-Apr-13 09:33N 31°26' E 121°29'5 4.8
2015-Apr-13 08:33N 31°31' E 121°27'9 8.8
2015-Apr-13 07:33N 31°30' E 121°37'8 8.2
2015-Apr-13 06:33N 31°34' E 121°29'0 0.0
2015-Apr-13 05:30N 31°34' E 121°29'0 0.0
2015-Apr-13 04:27N 31°34' E 121°29'0 0.0
2015-Apr-13 03:30N 31°34' E 121°29'0 0.0
2015-Apr-13 02:28N 31°34' E 121°29'2 1.8
2015-Apr-13 01:34N 31°35' E 121°27'0 0.1
2015-Apr-13 00:33N 31°35' E 121°27'0 0.0
2015-Apr-12 23:30N 31°35' E 121°27'0 0.0
2015-Apr-12 22:33N 31°35' E 121°27'0 0.0
2015-Apr-12 21:33N 31°35' E 121°27'0 0.0
2015-Apr-12 20:33N 31°35' E 121°27'0 0.0
2015-Apr-12 19:33N 31°35' E 121°27'0 0.0
2015-Apr-12 18:32N 31°35' E 121°27'0 0.2
2015-Apr-12 17:33N 31°35' E 121°27'1 0.5
2015-Apr-12 16:33N 31°36' E 121°27'0 0.0
2015-Apr-12 15:33N 31°36' E 121°27'0 0.0
2015-Apr-12 14:33N 31°36' E 121°27'0 0.0
2015-Apr-12 13:33N 31°36' E 121°27'0 0.0
2015-Apr-12 12:30N 31°36' E 121°27'0 0.0
2015-Apr-12 11:33N 31°36' E 121°27'0 0.0
2015-Apr-12 10:33N 31°36' E 121°27'0 0.0
2015-Apr-12 09:30N 31°36' E 121°27'  
Track history (hours):
 
Tides and Currents Weather Stations Pressure Air Temp Water Temp Dewpoint Dewpoint Depression Visibility Wind Speed Wind Dir Waves Ship Positions

Four Nabucco

Last reported at 2015-Apr-21 18:07 UTC. Time now 2015-Apr-21 19:07 UTC.
Position N 31°01' E 122°36'.

Length 180 m; draft 8 m.

Type: Cargo ship. MMSI: 319030700.

Date/timePositionNaut miles runAvg speedWind from/ knotsBaromVisibWave heightAir tempDewpointWater temp
2015-Apr-21 18:07N 31°01' E 122°36'0 0.0
2015-Apr-21 16:31N 31°01' E 122°36'0 0.0
2015-Apr-21 15:07N 31°01' E 122°36'0 0.1
2015-Apr-21 14:04N 31°01' E 122°36'0 0.1
2015-Apr-21 12:13N 31°00' E 122°36'0 0.1
2015-Apr-21 11:13N 31°00' E 122°36'0 0.1
2015-Apr-21 10:22N 31°00' E 122°36'30 1.6
2015-Apr-20 15:33N 31°05' E 122°02'9 9.0
2015-Apr-20 14:34N 31°09' E 121°53'1313.1
2015-Apr-20 13:33N 31°19' E 121°42'1110.8
2015-Apr-20 12:33N 31°25' E 121°32'1110.6
2015-Apr-20 11:33N 31°32' E 121°22'2814.0
2015-Apr-20 09:33N 31°48' E 120°55'3010.0
2015-Apr-20 06:32N 32°01' E 120°24'1212.5
2015-Apr-20 05:32N 31°56' E 120°10'  
2015-Apr-15 23:15N 32°04' E 119°56'810.7
2015-Apr-15 22:30N 31°58' E 120°03'9 9.4
2015-Apr-15 21:32N 31°56' E 120°13'1211.4
2015-Apr-15 20:30N 32°02' E 120°25'10 8.1
2015-Apr-15 19:16N 32°01' E 120°36'710.3
2015-Apr-15 18:32N 32°01' E 120°45'2611.7
2015-Apr-15 16:18N 31°43' E 121°08'1013.8
2015-Apr-15 15:33N 31°36' E 121°17'1212.4
2015-Apr-15 14:33N 31°28' E 121°28'9 8.5
2015-Apr-15 13:33N 31°23' E 121°36'8 8.2
2015-Apr-15 12:33N 31°18' E 121°43'1211.9
2015-Apr-15 11:33N 31°09' E 121°53'1212.2
2015-Apr-15 10:34N 31°04' E 122°06'1111.0
2015-Apr-15 09:32N 31°02' E 122°19'10 9.7
2015-Apr-15 08:32N 31°00' E 122°30'5 0.5
2015-Apr-14 22:11N 31°01' E 122°35'0 0.1
2015-Apr-14 20:33N 31°01' E 122°35'25 0.8
2015-Apr-13 13:13N 31°04' E 122°06'710.5
2015-Apr-13 12:33N 31°06' E 121°58'1313.0
2015-Apr-13 11:33N 31°15' E 121°47'1010.3
2015-Apr-13 10:33N 31°22' E 121°38'9 8.6
2015-Apr-13 09:33N 31°26' E 121°29'5 4.8
2015-Apr-13 08:33N 31°31' E 121°27'9 8.8
2015-Apr-13 07:33N 31°30' E 121°37'8 8.2
2015-Apr-13 06:33N 31°34' E 121°29'0 0.0
2015-Apr-13 05:30N 31°34' E 121°29'0 0.0
2015-Apr-13 04:27N 31°34' E 121°29'0 0.0
2015-Apr-13 03:30N 31°34' E 121°29'0 0.0
2015-Apr-13 02:28N 31°34' E 121°29'2 1.8
2015-Apr-13 01:34N 31°35' E 121°27'0 0.1
2015-Apr-13 00:33N 31°35' E 121°27'0 0.0
2015-Apr-12 23:30N 31°35' E 121°27'0 0.0
2015-Apr-12 22:33N 31°35' E 121°27'0 0.0
2015-Apr-12 21:33N 31°35' E 121°27'0 0.0
2015-Apr-12 20:33N 31°35' E 121°27'0 0.0
2015-Apr-12 19:33N 31°35' E 121°27'0 0.0
2015-Apr-12 18:32N 31°35' E 121°27'0 0.2
2015-Apr-12 17:33N 31°35' E 121°27'1 0.5
2015-Apr-12 16:33N 31°36' E 121°27'0 0.0
2015-Apr-12 15:33N 31°36' E 121°27'0 0.0
2015-Apr-12 14:33N 31°36' E 121°27'0 0.0
2015-Apr-12 13:33N 31°36' E 121°27'0 0.0
2015-Apr-12 12:30N 31°36' E 121°27'0 0.0
2015-Apr-12 11:33N 31°36' E 121°27'0 0.0
2015-Apr-12 10:33N 31°36' E 121°27'0 0.0
2015-Apr-12 09:30N 31°36' E 121°27'  

Dump ship's entire track history